createdAt,value
2023-09-15T00:00:21.844Z,13.73
2023-09-15T00:02:48.838Z,13.69
2023-09-15T00:05:16.390Z,13.67
2023-09-15T00:07:42.980Z,13.72
2023-09-15T00:10:32.457Z,13.67
2023-09-15T00:12:59.580Z,13.57
2023-09-15T00:15:27.147Z,13.54
2023-09-15T00:17:56.139Z,13.48
2023-09-15T00:20:22.905Z,13.50
2023-09-15T00:22:54.775Z,13.57
2023-09-15T00:25:24.090Z,13.64
2023-09-15T00:27:53.111Z,13.52
2023-09-15T00:30:23.011Z,13.52
2023-09-15T00:32:50.408Z,13.43
2023-09-15T00:35:19.115Z,13.43
2023-09-15T00:37:50.597Z,13.41
2023-09-15T00:40:19.820Z,13.43
2023-09-15T00:42:48.409Z,13.39
2023-09-15T00:45:17.068Z,13.46
2023-09-15T00:47:47.651Z,13.40
2023-09-15T00:50:15.962Z,13.35
2023-09-15T00:52:46.447Z,13.41
2023-09-15T00:55:14.678Z,13.43
2023-09-15T00:57:41.968Z,13.37
2023-09-15T01:00:13.188Z,13.31
2023-09-15T01:02:46.569Z,13.32
2023-09-15T01:05:21.003Z,13.26
2023-09-15T01:07:48.407Z,13.22
2023-09-15T01:10:15.780Z,13.25
2023-09-15T01:12:44.684Z,13.23
2023-09-15T01:15:11.664Z,13.14
2023-09-15T01:17:59.966Z,12.99
2023-09-15T01:20:54.395Z,13.06
2023-09-15T01:23:42.464Z,13.06
2023-09-15T01:26:21.330Z,13.14
2023-09-15T01:29:15.929Z,13.08
2023-09-15T01:31:44.351Z,13.15
2023-09-15T01:34:14.615Z,12.99
2023-09-15T01:36:41.693Z,12.97
2023-09-15T01:39:09.378Z,12.95
2023-09-15T01:41:36.018Z,12.78
2023-09-15T01:44:02.773Z,12.80
2023-09-15T01:46:30.228Z,12.79
2023-09-15T01:49:00.436Z,12.72
2023-09-15T01:51:29.084Z,12.74
2023-09-15T01:53:55.947Z,12.72
2023-09-15T01:56:24.428Z,12.69
2023-09-15T01:58:51.152Z,12.69
2023-09-15T02:01:18.520Z,12.65
2023-09-15T02:03:45.229Z,12.72
2023-09-15T02:06:17.858Z,12.60
2023-09-15T02:08:48.637Z,12.60
2023-09-15T02:11:15.713Z,12.55
2023-09-15T02:13:43.676Z,12.47
2023-09-15T02:16:12.473Z,12.45
2023-09-15T02:18:39.252Z,12.50
2023-09-15T02:21:05.861Z,12.54
2023-09-15T02:23:32.498Z,12.58
2023-09-15T02:26:03.711Z,12.59
2023-09-15T02:28:30.534Z,12.63
2023-09-15T02:30:57.470Z,12.69
2023-09-15T02:33:24.533Z,12.46
2023-09-15T02:35:51.501Z,12.64
2023-09-15T02:38:18.857Z,12.68
2023-09-15T02:40:45.514Z,12.79
2023-09-15T02:43:12.053Z,12.76
2023-09-15T02:45:39.316Z,12.73
2023-09-15T02:48:07.359Z,12.67
2023-09-15T02:50:34.573Z,12.89
2023-09-15T02:53:01.756Z,12.84
2023-09-15T02:55:28.509Z,12.80
2023-09-15T02:57:56.135Z,12.81
2023-09-15T03:00:22.894Z,12.78
2023-09-15T03:02:50.405Z,12.70
2023-09-15T03:05:21.520Z,12.69
2023-09-15T03:07:48.113Z,12.62
2023-09-15T03:10:16.131Z,12.56
2023-09-15T03:12:42.797Z,12.52
2023-09-15T03:15:10.277Z,12.58
2023-09-15T03:17:40.774Z,12.50
2023-09-15T03:20:16.598Z,12.54
2023-09-15T03:22:44.885Z,12.48
2023-09-15T03:25:12.289Z,12.45
2023-09-15T03:27:40.038Z,12.41
2023-09-15T03:30:07.743Z,12.40
2023-09-15T03:32:35.105Z,12.35
2023-09-15T03:35:02.004Z,12.31
2023-09-15T03:37:28.731Z,12.36
2023-09-15T03:39:55.354Z,12.24
2023-09-15T03:42:22.630Z,12.28
2023-09-15T03:44:50.079Z,12.20
2023-09-15T03:47:16.774Z,12.26
2023-09-15T03:49:44.229Z,12.30
2023-09-15T03:52:10.778Z,12.19
2023-09-15T03:54:37.815Z,12.25
2023-09-15T03:57:06.245Z,12.09
2023-09-15T03:59:33.498Z,12.24
2023-09-15T04:02:00.231Z,12.24
2023-09-15T04:04:26.926Z,12.16
2023-09-15T04:06:54.947Z,12.19
2023-09-15T04:09:21.610Z,12.10
2023-09-15T04:11:48.102Z,12.22
2023-09-15T04:14:14.671Z,12.17
2023-09-15T04:16:41.231Z,12.14
2023-09-15T04:19:08.346Z,12.18
2023-09-15T04:21:36.523Z,11.94
2023-09-15T04:24:03.357Z,12.02
2023-09-15T04:26:29.978Z,11.90
2023-09-15T04:28:59.271Z,12.04
2023-09-15T04:31:26.052Z,11.97
2023-09-15T04:33:52.978Z,12.08
2023-09-15T04:36:19.624Z,12.02
2023-09-15T04:38:46.685Z,12.07
2023-09-15T04:41:13.759Z,12.06
2023-09-15T04:43:40.621Z,11.92
2023-09-15T04:46:07.389Z,11.93
2023-09-15T04:48:34.276Z,11.83
2023-09-15T04:51:00.875Z,11.90
2023-09-15T04:53:29.244Z,11.82
2023-09-15T04:55:55.864Z,11.85
2023-09-15T04:58:22.950Z,11.86
2023-09-15T05:00:49.709Z,11.87
2023-09-15T05:03:16.508Z,11.83
2023-09-15T05:05:44.693Z,11.96
2023-09-15T05:08:12.132Z,12.02
2023-09-15T05:10:38.767Z,12.03
2023-09-15T05:13:06.698Z,12.10
2023-09-15T05:15:35.697Z,12.12
2023-09-15T05:18:03.427Z,12.24
2023-09-15T05:20:31.877Z,12.31
2023-09-15T05:22:58.652Z,12.40
2023-09-15T05:25:25.275Z,12.43
2023-09-15T05:27:51.937Z,12.61
2023-09-15T05:30:18.748Z,12.61
2023-09-15T05:32:45.394Z,12.59
2023-09-15T05:35:12.128Z,12.70
2023-09-15T05:37:38.875Z,12.79
2023-09-15T05:40:06.246Z,13.23
2023-09-15T05:42:32.904Z,13.53
2023-09-15T05:45:00.301Z,13.75
2023-09-15T05:47:26.928Z,14.19
2023-09-15T05:49:53.519Z,14.52
2023-09-15T05:52:20.164Z,14.79
2023-09-15T05:54:46.856Z,14.98
2023-09-15T05:57:13.497Z,15.01
2023-09-15T05:59:40.025Z,15.36
2023-09-15T06:02:08.262Z,15.48
2023-09-15T06:04:35.005Z,14.67
2023-09-15T06:07:02.653Z,15.51
2023-09-15T06:09:30.384Z,15.32
2023-09-15T06:11:57.005Z,15.65
2023-09-15T06:14:23.622Z,15.75
2023-09-15T06:16:50.297Z,15.68
2023-09-15T06:19:16.952Z,15.78
2023-09-15T06:21:43.564Z,15.73
2023-09-15T06:24:10.030Z,15.75
2023-09-15T06:26:37.847Z,15.59
2023-09-15T06:29:04.604Z,15.62
2023-09-15T06:31:31.331Z,15.66
2023-09-15T06:33:57.930Z,15.96
2023-09-15T06:36:24.751Z,16.09
2023-09-15T06:38:51.863Z,16.59
2023-09-15T06:41:18.484Z,16.77
2023-09-15T06:43:45.114Z,16.56
2023-09-15T06:46:12.321Z,16.61
2023-09-15T06:48:39.121Z,16.82
2023-09-15T06:51:05.697Z,16.74
2023-09-15T06:53:32.357Z,17.05
2023-09-15T06:55:59.022Z,17.48
2023-09-15T06:58:27.332Z,17.40
2023-09-15T07:00:57.973Z,17.88
2023-09-15T07:03:26.160Z,17.50
2023-09-15T07:05:53.617Z,17.91
2023-09-15T07:08:20.237Z,18.12
2023-09-15T07:10:52.300Z,17.91
2023-09-15T07:13:19.486Z,18.39
2023-09-15T07:15:46.360Z,18.46
2023-09-15T07:18:13.681Z,17.88
2023-09-15T07:20:40.391Z,18.38
2023-09-15T07:23:07.075Z,18.30
2023-09-15T07:25:33.779Z,18.69
2023-09-15T07:28:00.422Z,18.77
2023-09-15T07:30:27.031Z,19.05
2023-09-15T07:32:53.658Z,19.13
2023-09-15T07:35:20.374Z,19.17
2023-09-15T07:37:47.005Z,18.93
2023-09-15T07:40:13.749Z,18.83
2023-09-15T07:42:40.402Z,18.97
2023-09-15T07:45:07.926Z,18.83
2023-09-15T07:47:34.601Z,19.00
2023-09-15T07:50:01.344Z,19.04
2023-09-15T07:52:28.970Z,18.96
2023-09-15T07:54:55.790Z,18.98
2023-09-15T07:57:22.455Z,19.40
2023-09-15T07:59:52.059Z,19.36
2023-09-15T08:02:19.756Z,19.76
2023-09-15T08:04:46.549Z,19.65
2023-09-15T08:07:13.308Z,19.89
2023-09-15T08:09:40.075Z,19.74
2023-09-15T08:12:07.489Z,19.49
2023-09-15T08:14:34.121Z,19.65
2023-09-15T08:17:01.009Z,19.78
2023-09-15T08:19:28.744Z,19.84
2023-09-15T08:21:55.475Z,20.03
2023-09-15T08:24:22.108Z,19.93
2023-09-15T08:26:48.738Z,20.20
2023-09-15T08:29:15.428Z,20.53
2023-09-15T08:31:42.292Z,20.46
2023-09-15T08:34:09.172Z,20.34
2023-09-15T08:36:35.862Z,20.29
2023-09-15T08:39:03.506Z,20.51
2023-09-15T08:41:41.493Z,20.44
2023-09-15T08:44:12.201Z,20.43
2023-09-15T08:46:42.828Z,20.34
2023-09-15T08:49:10.835Z,20.42
2023-09-15T08:51:38.624Z,20.83
2023-09-15T08:54:05.558Z,20.97
2023-09-15T08:56:32.807Z,21.13
2023-09-15T08:59:00.548Z,20.82
2023-09-15T09:01:28.252Z,20.41
2023-09-15T09:03:55.242Z,20.92
2023-09-15T09:06:24.095Z,20.88
2023-09-15T09:08:50.858Z,20.92
2023-09-15T09:11:17.614Z,21.30
2023-09-15T09:13:54.288Z,21.46
2023-09-15T09:16:22.914Z,21.11
2023-09-15T09:18:58.484Z,21.19
2023-09-15T09:21:27.632Z,21.08
2023-09-15T09:23:55.550Z,21.23
2023-09-15T09:26:22.846Z,21.28
2023-09-15T09:28:50.384Z,21.34
2023-09-15T09:31:17.711Z,21.19
2023-09-15T09:33:44.685Z,21.03
2023-09-15T09:36:17.943Z,21.42
2023-09-15T09:38:51.603Z,21.60
2023-09-15T09:41:21.634Z,21.72
2023-09-15T09:43:52.296Z,21.82
2023-09-15T09:46:22.756Z,21.03
2023-09-15T09:48:52.828Z,21.53
2023-09-15T09:51:22.537Z,21.63
2023-09-15T09:53:57.016Z,21.73
2023-09-15T09:56:24.624Z,21.79
2023-09-15T09:58:51.627Z,21.92
2023-09-15T10:01:19.791Z,21.32
2023-09-15T10:03:47.098Z,22.12
2023-09-15T10:06:17.529Z,21.40
2023-09-15T10:08:47.555Z,21.29
2023-09-15T10:11:16.675Z,21.10
2023-09-15T10:13:45.012Z,21.72
2023-09-15T10:16:12.484Z,22.08
2023-09-15T10:18:39.618Z,22.34
2023-09-15T10:21:08.282Z,21.95
2023-09-15T10:23:36.543Z,22.20
2023-09-15T10:26:05.109Z,22.96
2023-09-15T10:31:03.021Z,22.41
2023-09-15T10:33:30.671Z,22.49
2023-09-15T10:36:05.910Z,22.57
2023-09-15T10:38:35.915Z,22.43
2023-09-15T10:41:09.400Z,22.12
2023-09-15T10:43:38.101Z,22.04
2023-09-15T10:46:05.815Z,22.44
2023-09-15T10:48:41.084Z,23.17
2023-09-15T10:51:11.294Z,22.85
2023-09-15T10:54:02.191Z,22.99
2023-09-15T10:56:29.561Z,22.43
2023-09-15T10:58:56.812Z,22.76
2023-09-15T11:01:23.834Z,23.13
2023-09-15T11:03:54.533Z,23.08
2023-09-15T11:06:26.465Z,22.88
2023-09-15T11:08:54.554Z,22.84
2023-09-15T11:11:21.528Z,22.67
2023-09-15T11:13:50.744Z,23.23
2023-09-15T11:16:17.914Z,22.65
2023-09-15T11:18:46.977Z,22.88
2023-09-15T11:21:16.537Z,23.41
2023-09-15T11:23:49.760Z,23.34
2023-09-15T11:26:27.178Z,23.11
2023-09-15T11:28:55.959Z,23.03
2023-09-15T11:31:24.689Z,23.70
2023-09-15T11:33:56.790Z,23.51
2023-09-15T11:36:24.540Z,23.53
2023-09-15T11:38:55.016Z,23.43
2023-09-15T11:41:30.531Z,22.61
2023-09-15T11:43:58.660Z,23.70
2023-09-15T11:46:26.233Z,23.14
2023-09-15T11:48:55.959Z,23.53
2023-09-15T11:51:26.359Z,23.37
2023-09-15T11:53:53.993Z,23.28
2023-09-15T11:56:21.836Z,23.19
2023-09-15T11:58:52.559Z,23.87
2023-09-15T12:01:20.879Z,23.00
2023-09-15T12:03:51.773Z,23.63
2023-09-15T12:06:21.615Z,23.65
2023-09-15T12:08:51.293Z,23.42
2023-09-15T12:11:19.402Z,23.72
2023-09-15T12:13:50.301Z,23.64
2023-09-15T12:16:30.241Z,23.83
2023-09-15T12:19:00.221Z,23.36
2023-09-15T12:21:29.527Z,23.51
2023-09-15T12:24:09.715Z,24.37
2023-09-15T12:26:41.922Z,23.44
2023-09-15T12:29:10.417Z,23.28
2023-09-15T12:31:43.109Z,23.32
2023-09-15T12:34:20.361Z,23.85
2023-09-15T12:36:52.850Z,24.28
2023-09-15T12:39:19.864Z,23.75
2023-09-15T12:41:52.201Z,23.76
2023-09-15T12:44:29.034Z,24.37
2023-09-15T12:46:56.408Z,23.44
2023-09-15T12:49:23.500Z,24.04
2023-09-15T12:51:50.202Z,24.46
2023-09-15T12:54:17.134Z,23.88
2023-09-15T12:56:44.054Z,24.44
2023-09-15T12:59:10.944Z,24.32
2023-09-15T13:01:37.749Z,24.32
2023-09-15T13:04:04.704Z,24.69
2023-09-15T13:06:31.787Z,24.68
2023-09-15T13:08:59.161Z,24.53
2023-09-15T13:11:26.067Z,24.49
2023-09-15T13:13:54.389Z,24.57
2023-09-15T13:16:21.647Z,24.39
2023-09-15T13:18:48.635Z,23.87
2023-09-15T13:21:15.521Z,24.55
2023-09-15T13:23:42.307Z,24.63
2023-09-15T13:26:10.694Z,24.83
2023-09-15T13:28:37.844Z,24.57
2023-09-15T13:31:05.288Z,24.39
2023-09-15T13:33:32.729Z,24.19
2023-09-15T13:35:59.640Z,23.45
2023-09-15T13:38:26.738Z,24.50
2023-09-15T13:40:53.798Z,23.84
2023-09-15T13:43:20.956Z,24.04
2023-09-15T13:45:54.329Z,24.07
2023-09-15T13:48:23.721Z,24.13
2023-09-15T13:50:51.829Z,24.49
2023-09-15T13:53:19.024Z,23.86
2023-09-15T13:55:48.802Z,24.29
2023-09-15T13:58:17.228Z,24.37
2023-09-15T14:00:56.779Z,24.74
2023-09-15T14:03:24.448Z,24.22
2023-09-15T14:05:51.924Z,24.33
2023-09-15T14:08:19.110Z,24.49
2023-09-15T14:10:46.031Z,24.33
2023-09-15T14:13:16.010Z,24.23
2023-09-15T14:15:45.500Z,24.12
2023-09-15T14:18:15.255Z,24.59
2023-09-15T14:20:42.252Z,24.34
2023-09-15T14:23:08.843Z,24.31
2023-09-15T14:25:35.537Z,24.38
2023-09-15T14:28:02.409Z,23.59
2023-09-15T14:30:29.089Z,23.35
2023-09-15T14:32:57.920Z,24.37
2023-09-15T14:35:24.782Z,24.05
2023-09-15T14:37:51.542Z,23.60
2023-09-15T14:40:18.286Z,23.76
2023-09-15T14:42:45.162Z,23.56
2023-09-15T14:45:11.989Z,23.80
2023-09-15T14:47:38.735Z,23.62
2023-09-15T14:50:06.830Z,23.33
2023-09-15T14:52:34.799Z,22.80
2023-09-15T14:55:01.671Z,23.24
2023-09-15T14:57:28.590Z,23.02
2023-09-15T14:59:55.344Z,23.39
2023-09-15T15:02:22.150Z,23.12
2023-09-15T15:04:48.994Z,23.20
2023-09-15T15:07:16.273Z,23.25
2023-09-15T15:09:43.377Z,23.26
2023-09-15T15:12:12.077Z,22.94
2023-09-15T15:14:38.849Z,23.39
2023-09-15T15:17:06.162Z,22.46
2023-09-15T15:19:32.984Z,22.95
2023-09-15T15:21:59.622Z,23.02
2023-09-15T15:24:26.372Z,23.01
2023-09-15T15:26:53.154Z,22.53
2023-09-15T15:29:19.774Z,22.54
2023-09-15T15:31:48.807Z,22.94
2023-09-15T15:34:15.605Z,22.72
2023-09-15T15:36:42.455Z,22.65
2023-09-15T15:39:09.048Z,22.57
2023-09-15T15:41:35.863Z,22.74
2023-09-15T15:44:02.673Z,22.74
2023-09-15T15:46:29.392Z,22.72
2023-09-15T15:48:56.193Z,22.40
2023-09-15T15:51:23.051Z,22.83
2023-09-15T15:53:49.933Z,22.55
2023-09-15T15:56:17.104Z,22.36
2023-09-15T15:58:43.850Z,22.28
2023-09-15T16:01:11.381Z,22.20
2023-09-15T16:03:38.273Z,22.44
2023-09-15T16:06:05.019Z,21.84
2023-09-15T16:08:32.726Z,21.79
2023-09-15T16:11:05.665Z,22.38
2023-09-15T16:13:36.651Z,21.94
2023-09-15T16:16:04.958Z,22.05
2023-09-15T16:18:31.909Z,22.01
2023-09-15T16:20:59.673Z,22.21
2023-09-15T16:23:26.570Z,22.02
2023-09-15T16:25:53.430Z,22.11
2023-09-15T16:28:20.524Z,21.17
2023-09-15T16:30:47.462Z,21.96
2023-09-15T16:33:14.362Z,22.13
2023-09-15T16:35:43.141Z,21.79
2023-09-15T16:38:10.524Z,21.88
2023-09-15T16:40:38.449Z,21.60
2023-09-15T16:43:06.513Z,20.94
2023-09-15T16:45:34.252Z,21.51
2023-09-15T16:48:03.961Z,21.59
2023-09-15T16:50:32.964Z,21.42
2023-09-15T16:53:00.015Z,21.53
2023-09-15T16:55:26.802Z,21.05
2023-09-15T16:57:56.150Z,21.31
2023-09-15T17:00:23.731Z,21.17
2023-09-15T17:02:50.584Z,21.14
2023-09-15T17:05:17.380Z,20.85
2023-09-15T17:07:44.199Z,20.57
2023-09-15T17:10:13.674Z,20.70
2023-09-15T17:12:44.260Z,20.41
2023-09-15T17:15:12.631Z,20.20
2023-09-15T17:17:41.922Z,20.00
2023-09-15T17:20:11.860Z,19.71
2023-09-15T17:22:38.538Z,19.71
2023-09-15T17:25:05.660Z,19.62
2023-09-15T17:27:32.360Z,19.44
2023-09-15T17:29:59.087Z,19.27
2023-09-15T17:32:25.994Z,19.16
2023-09-15T17:34:52.720Z,19.04
2023-09-15T17:37:19.596Z,18.23
2023-09-15T17:39:51.128Z,18.85
2023-09-15T17:42:20.743Z,18.67
2023-09-15T17:44:47.392Z,18.57
2023-09-15T17:47:14.099Z,18.56
2023-09-15T17:49:43.533Z,18.51
2023-09-15T17:52:12.669Z,18.36
2023-09-15T17:54:39.531Z,18.30
2023-09-15T17:57:06.424Z,17.19
2023-09-15T17:59:33.179Z,18.11
2023-09-15T18:01:59.934Z,17.99
2023-09-15T18:04:26.980Z,17.79
2023-09-15T18:06:53.794Z,17.79
2023-09-15T18:09:20.690Z,17.65
2023-09-15T18:11:47.447Z,17.79
2023-09-15T18:14:14.479Z,17.16
2023-09-15T18:16:41.533Z,17.28
2023-09-15T18:19:08.901Z,16.64
2023-09-15T18:21:35.883Z,16.95
2023-09-15T18:24:03.042Z,17.08
2023-09-15T18:26:30.041Z,17.36
2023-09-15T18:28:57.171Z,16.32
2023-09-15T18:31:27.002Z,16.86
2023-09-15T18:33:54.161Z,17.34
2023-09-15T18:36:21.800Z,16.41
2023-09-15T18:38:50.047Z,16.97
2023-09-15T18:41:18.542Z,16.01
2023-09-15T18:43:46.712Z,15.97
2023-09-15T18:46:14.261Z,16.76
2023-09-15T18:48:47.307Z,16.18
2023-09-15T18:51:18.054Z,16.38
2023-09-15T18:53:50.219Z,16.24
2023-09-15T18:56:17.720Z,16.24
2023-09-15T18:58:45.403Z,15.70
2023-09-15T19:01:15.987Z,16.28
2023-09-15T19:03:43.442Z,15.69
2023-09-15T19:06:11.807Z,16.08
2023-09-15T19:08:40.818Z,16.49
2023-09-15T19:11:07.316Z,16.33
2023-09-15T19:13:34.170Z,16.14
2023-09-15T19:18:49.412Z,16.24
2023-09-15T19:21:16.167Z,16.06
2023-09-15T19:23:42.842Z,16.07
2023-09-15T19:26:09.530Z,16.01
2023-09-15T19:28:36.195Z,16.07
2023-09-15T19:31:02.814Z,15.84
2023-09-15T19:33:29.628Z,15.92
2023-09-15T19:35:56.330Z,15.94
2023-09-15T19:38:23.053Z,15.90
2023-09-15T19:40:51.270Z,15.84
2023-09-15T19:43:18.146Z,15.77
2023-09-15T19:45:48.797Z,15.77
2023-09-15T19:48:15.480Z,15.70
2023-09-15T19:50:42.080Z,15.68
2023-09-15T19:53:09.501Z,15.57
2023-09-15T19:55:36.120Z,15.53
2023-09-15T19:58:04.063Z,15.56
2023-09-15T20:00:30.731Z,15.51
2023-09-15T20:02:59.139Z,15.35
2023-09-15T20:05:25.960Z,15.37
2023-09-15T20:07:56.427Z,15.34
2023-09-15T20:10:24.164Z,15.38
2023-09-15T20:12:51.128Z,15.37
2023-09-15T20:15:17.742Z,15.35
2023-09-15T20:17:45.736Z,15.31
2023-09-15T20:20:17.879Z,15.35
2023-09-15T20:22:45.684Z,15.32
2023-09-15T20:25:12.663Z,15.29
2023-09-15T20:27:42.216Z,15.39
2023-09-15T20:30:10.029Z,15.29
2023-09-15T20:32:37.059Z,15.09
2023-09-15T20:35:05.639Z,15.25
2023-09-15T20:37:32.200Z,15.21
2023-09-15T20:39:58.797Z,15.15
2023-09-15T20:42:25.974Z,15.08
2023-09-15T20:44:52.812Z,15.08
2023-09-15T20:47:19.706Z,14.95
2023-09-15T20:49:48.412Z,14.86
2023-09-15T20:52:15.474Z,14.98
2023-09-15T20:54:42.548Z,14.86
2023-09-15T20:57:09.170Z,14.84
2023-09-15T20:59:36.381Z,14.86
2023-09-15T21:02:02.955Z,14.81
2023-09-15T21:04:29.550Z,14.88
2023-09-15T21:06:56.276Z,14.81
2023-09-15T21:09:23.081Z,14.70
2023-09-15T21:11:49.770Z,14.75
2023-09-15T21:14:16.427Z,14.67
2023-09-15T21:16:43.164Z,14.62
2023-09-15T21:19:11.934Z,14.63
2023-09-15T21:21:39.541Z,14.46
2023-09-15T21:24:06.434Z,14.53
2023-09-15T21:26:33.071Z,14.49
2023-09-15T21:28:59.799Z,14.46
2023-09-15T21:31:27.909Z,14.43
2023-09-15T21:33:54.751Z,14.39
2023-09-15T21:36:21.666Z,14.28
2023-09-15T21:38:49.351Z,14.33
2023-09-15T21:41:16.781Z,14.27
2023-09-15T21:43:43.498Z,14.26
2023-09-15T21:46:10.148Z,14.38
2023-09-15T21:48:38.914Z,14.17
2023-09-15T21:51:06.087Z,14.26
2023-09-15T21:53:34.190Z,14.30
2023-09-15T21:56:01.260Z,14.31
2023-09-15T21:58:28.088Z,14.37
2023-09-15T22:18:25.586Z,13.57
2023-09-15T22:20:52.382Z,13.70
2023-09-15T22:23:19.642Z,13.71
2023-09-15T22:25:46.460Z,13.79
2023-09-15T22:28:13.040Z,13.87
2023-09-15T22:30:39.573Z,13.88
2023-09-15T22:33:06.281Z,13.90
2023-09-15T22:35:32.942Z,13.84
2023-09-15T22:37:59.640Z,13.82
2023-09-15T22:40:26.580Z,13.92
2023-09-15T22:42:53.682Z,13.95
2023-09-15T22:45:23.310Z,13.83
2023-09-15T22:47:56.723Z,13.80
2023-09-15T22:50:25.291Z,13.78
2023-09-15T22:52:53.727Z,13.77
2023-09-15T22:55:21.879Z,13.65
2023-09-15T22:57:49.055Z,13.77
2023-09-15T23:00:17.830Z,13.69
2023-09-15T23:02:47.651Z,13.75
2023-09-15T23:05:14.690Z,13.75
2023-09-15T23:07:41.713Z,13.70
2023-09-15T23:10:09.695Z,13.63
2023-09-15T23:12:37.128Z,13.60
2023-09-15T23:15:03.978Z,13.60
2023-09-15T23:17:31.130Z,13.43
2023-09-15T23:19:58.053Z,13.54
2023-09-15T23:22:25.068Z,13.50
2023-09-15T23:24:52.750Z,13.35
2023-09-15T23:27:19.874Z,13.39
2023-09-15T23:29:46.980Z,13.49
2023-09-15T23:32:13.785Z,13.51
2023-09-15T23:34:40.566Z,13.23
2023-09-15T23:37:07.400Z,13.29
2023-09-15T23:39:36.287Z,13.45
2023-09-15T23:42:03.931Z,13.40
2023-09-15T23:44:31.111Z,13.36
2023-09-15T23:46:57.869Z,13.33
2023-09-15T23:49:24.883Z,13.21
2023-09-15T23:51:52.275Z,13.38
2023-09-15T23:54:19.322Z,13.33
2023-09-15T23:56:46.304Z,13.35
2023-09-15T23:59:13.356Z,13.34
